createdAt,value
2018-10-17T00:00:52.157Z,1013.38
2018-10-17T00:01:52.125Z,1013.42
2018-10-17T00:02:52.109Z,1013.40
2018-10-17T00:03:52.103Z,1013.40
2018-10-17T00:04:52.079Z,1013.42
2018-10-17T00:05:52.053Z,1013.41
2018-10-17T00:06:52.050Z,1013.44
2018-10-17T00:07:52.025Z,1013.41
2018-10-17T00:08:52.002Z,1013.38
2018-10-17T00:09:51.994Z,1013.37
2018-10-17T00:10:51.987Z,1013.38
2018-10-17T00:11:51.950Z,1013.37
2018-10-17T00:12:51.995Z,1013.38
2018-10-17T00:13:51.920Z,1013.42
2018-10-17T00:14:51.899Z,1013.38
2018-10-17T00:15:51.929Z,1013.39
2018-10-17T00:16:51.915Z,1013.39
2018-10-17T00:17:51.849Z,1013.39
2018-10-17T00:18:51.843Z,1013.39
2018-10-17T00:19:51.813Z,1013.38
2018-10-17T00:20:51.791Z,1013.41
2018-10-17T00:21:51.781Z,1013.38
2018-10-17T00:22:51.794Z,1013.39
2018-10-17T00:23:51.741Z,1013.42
2018-10-17T00:24:51.778Z,1013.40
2018-10-17T00:25:51.706Z,1013.42
2018-10-17T00:26:51.687Z,1013.45
2018-10-17T00:27:51.683Z,1013.42
2018-10-17T00:28:51.693Z,1013.42
2018-10-17T00:29:51.647Z,1013.39
2018-10-17T00:30:51.626Z,1013.40
2018-10-17T00:31:51.601Z,1013.41
2018-10-17T00:32:51.581Z,1013.40
2018-10-17T00:33:51.568Z,1013.40
2018-10-17T00:34:51.550Z,1013.40
2018-10-17T00:35:51.528Z,1013.34
2018-10-17T00:36:51.562Z,1013.33
2018-10-17T00:37:51.499Z,1013.38
2018-10-17T00:38:51.476Z,1013.34
2018-10-17T00:39:51.461Z,1013.34
2018-10-17T00:40:51.446Z,1013.36
2018-10-17T00:41:51.426Z,1013.37
2018-10-17T00:42:51.419Z,1013.35
2018-10-17T00:43:51.390Z,1013.35
2018-10-17T00:44:51.371Z,1013.32
2018-10-17T00:45:51.354Z,1013.31
2018-10-17T00:46:51.347Z,1013.30
2018-10-17T00:47:51.322Z,1013.29
2018-10-17T00:48:51.348Z,1013.30
2018-10-17T00:49:51.285Z,1013.28
2018-10-17T00:50:51.275Z,1013.31
2018-10-17T00:51:51.249Z,1013.27
2018-10-17T00:52:51.234Z,1013.28
2018-10-17T00:53:51.216Z,1013.28
2018-10-17T00:54:51.255Z,1013.27
2018-10-17T00:55:51.180Z,1013.28
2018-10-17T00:56:51.163Z,1013.24
2018-10-17T00:57:51.155Z,1013.26
2018-10-17T00:58:51.164Z,1013.30
2018-10-17T00:59:51.112Z,1013.28
2018-10-17T01:00:51.149Z,1013.29
2018-10-17T01:01:51.086Z,1013.28
2018-10-17T01:02:51.058Z,1013.24
2018-10-17T01:03:51.042Z,1013.21
2018-10-17T01:04:51.032Z,1013.26
2018-10-17T01:05:51.008Z,1013.23
2018-10-17T01:06:51.041Z,1013.21
2018-10-17T01:07:50.971Z,1013.19
2018-10-17T01:08:50.956Z,1013.24
2018-10-17T01:09:50.934Z,1013.20
2018-10-17T01:10:50.957Z,1013.21
2018-10-17T01:11:50.925Z,1013.24
2018-10-17T01:12:50.887Z,1013.20
2018-10-17T01:13:50.866Z,1013.18
2018-10-17T01:14:50.847Z,1013.20
2018-10-17T01:15:50.831Z,1013.23
2018-10-17T01:16:50.813Z,1013.21
2018-10-17T01:17:50.793Z,1013.23
2018-10-17T01:18:50.781Z,1013.16
2018-10-17T01:19:50.757Z,1013.17
2018-10-17T01:20:50.741Z,1013.17
2018-10-17T01:21:50.724Z,1013.14
2018-10-17T01:22:50.713Z,1013.15
2018-10-17T01:23:50.688Z,1013.14
2018-10-17T01:24:50.706Z,1013.16
2018-10-17T01:25:50.654Z,1013.13
2018-10-17T01:26:50.647Z,1013.14
2018-10-17T01:27:50.624Z,1013.15
2018-10-17T01:28:50.647Z,1013.13
2018-10-17T01:30:23.794Z,1013.11
2018-10-17T01:30:50.624Z,1013.15
2018-10-17T01:31:50.552Z,1013.10
2018-10-17T01:32:50.553Z,1013.11
2018-10-17T01:33:50.515Z,1013.08
2018-10-17T01:34:50.494Z,1013.07
2018-10-17T01:35:50.476Z,1013.09
2018-10-17T01:36:50.457Z,1013.07
2018-10-17T01:37:50.439Z,1013.08
2018-10-17T01:38:50.431Z,1013.06
2018-10-17T01:39:50.404Z,1012.99
2018-10-17T01:40:50.387Z,1013.02
2018-10-17T01:41:50.380Z,1013.02
2018-10-17T01:42:50.351Z,1013.02
2018-10-17T01:43:50.337Z,1013.04
2018-10-17T01:44:50.315Z,1013.04
2018-10-17T01:45:50.300Z,1013.05
2018-10-17T01:46:50.281Z,1013.06
2018-10-17T01:47:50.313Z,1013.00
2018-10-17T01:48:50.246Z,1013.00
2018-10-17T01:49:50.227Z,1013.01
2018-10-17T01:50:50.212Z,1012.98
2018-10-17T01:51:50.190Z,1012.95
2018-10-17T01:52:50.173Z,1013.00
2018-10-17T01:53:50.155Z,1012.98
2018-10-17T01:54:50.141Z,1012.97
2018-10-17T01:55:50.121Z,1012.96
2018-10-17T01:56:50.101Z,1012.94
2018-10-17T01:57:50.083Z,1012.93
2018-10-17T01:58:50.072Z,1012.90
2018-10-17T01:59:50.047Z,1012.88
2018-10-17T02:00:50.029Z,1012.84
2018-10-17T02:01:50.015Z,1012.86
2018-10-17T02:02:49.997Z,1012.84
2018-10-17T02:03:49.975Z,1012.84
2018-10-17T02:04:49.959Z,1012.80
2018-10-17T02:05:49.942Z,1012.80
2018-10-17T02:06:49.920Z,1012.80
2018-10-17T02:07:49.913Z,1012.79
2018-10-17T02:08:49.887Z,1012.79
2018-10-17T02:09:49.878Z,1012.76
2018-10-17T02:10:49.859Z,1012.74
2018-10-17T02:11:49.832Z,1012.75
2018-10-17T02:12:49.821Z,1012.77
2018-10-17T02:13:49.796Z,1012.76
2018-10-17T02:14:49.779Z,1012.76
2018-10-17T02:15:49.766Z,1012.77
2018-10-17T02:16:49.751Z,1012.75
2018-10-17T02:17:49.725Z,1012.76
2018-10-17T02:18:49.711Z,1012.76
2018-10-17T02:19:49.690Z,1012.79
2018-10-17T02:20:49.678Z,1012.77
2018-10-17T02:21:49.655Z,1012.74
2018-10-17T02:22:49.635Z,1012.76
2018-10-17T02:23:49.617Z,1012.78
2018-10-17T02:24:49.598Z,1012.76
2018-10-17T02:25:49.620Z,1012.72
2018-10-17T02:26:49.570Z,1012.77
2018-10-17T02:27:49.544Z,1012.75
2018-10-17T02:28:49.527Z,1012.77
2018-10-17T02:29:49.521Z,1012.79
2018-10-17T02:30:49.494Z,1012.80
2018-10-17T02:31:49.521Z,1012.76
2018-10-17T02:32:49.455Z,1012.78
2018-10-17T02:33:49.443Z,1012.79
2018-10-17T02:34:49.420Z,1012.79
2018-10-17T02:35:49.414Z,1012.78
2018-10-17T02:36:49.633Z,1012.79
2018-10-17T02:37:49.365Z,1012.76
2018-10-17T02:38:49.349Z,1012.77
2018-10-17T02:39:49.507Z,1012.75
2018-10-17T02:40:49.316Z,1012.76
2018-10-17T02:41:49.293Z,1012.78
2018-10-17T02:42:49.274Z,1012.78
2018-10-17T02:43:49.258Z,1012.80
2018-10-17T02:44:49.236Z,1012.76
2018-10-17T02:45:49.220Z,1012.81
2018-10-17T02:46:49.203Z,1012.79
2018-10-17T02:47:49.190Z,1012.79
2018-10-17T02:48:49.167Z,1012.84
2018-10-17T02:49:49.146Z,1012.82
2018-10-17T02:50:49.131Z,1012.83
2018-10-17T02:51:49.112Z,1012.82
2018-10-17T02:52:49.106Z,1012.85
2018-10-17T02:53:49.076Z,1012.84
2018-10-17T02:54:49.060Z,1012.83
2018-10-17T02:55:49.086Z,1012.87
2018-10-17T02:56:49.023Z,1012.85
2018-10-17T02:57:49.009Z,1012.89
2018-10-17T02:58:49.107Z,1012.89
2018-10-17T02:59:48.975Z,1012.93
2018-10-17T03:00:48.952Z,1012.89
2018-10-17T03:01:48.940Z,1012.91
2018-10-17T03:02:48.911Z,1012.92
2018-10-17T03:03:48.894Z,1012.89
2018-10-17T03:04:48.878Z,1012.91
2018-10-17T03:05:48.868Z,1012.90
2018-10-17T03:06:48.839Z,1012.91
2018-10-17T03:07:48.829Z,1012.86
2018-10-17T03:08:48.807Z,1012.87
2018-10-17T03:09:48.787Z,1012.86
2018-10-17T03:10:48.769Z,1012.88
2018-10-17T03:11:48.770Z,1012.87
2018-10-17T03:12:48.731Z,1012.87
2018-10-17T03:13:48.716Z,1012.83
2018-10-17T03:14:48.788Z,1012.82
2018-10-17T03:15:48.676Z,1012.83
2018-10-17T03:16:48.667Z,1012.78
2018-10-17T03:17:48.691Z,1012.83
2018-10-17T03:18:48.621Z,1012.86
2018-10-17T03:19:48.606Z,1012.83
2018-10-17T03:20:48.589Z,1012.87
2018-10-17T03:21:48.569Z,1012.87
2018-10-17T03:22:48.553Z,1012.88
2018-10-17T03:23:48.548Z,1012.86
2018-10-17T03:24:48.515Z,1012.88
2018-10-17T03:25:48.630Z,1012.86
2018-10-17T03:26:48.483Z,1012.87
2018-10-17T03:27:48.554Z,1012.89
2018-10-17T03:28:48.498Z,1012.96
2018-10-17T03:29:48.422Z,1012.94
2018-10-17T03:30:48.405Z,1012.98
2018-10-17T03:31:48.384Z,1012.98
2018-10-17T03:32:48.368Z,1013.03
2018-10-17T03:33:48.350Z,1013.02
2018-10-17T03:34:48.329Z,1013.05
2018-10-17T03:35:48.338Z,1013.04
2018-10-17T03:36:48.292Z,1013.03
2018-10-17T03:37:48.276Z,1013.04
2018-10-17T03:38:48.258Z,1013.03
2018-10-17T03:39:48.239Z,1013.03
2018-10-17T03:40:48.221Z,1013.05
2018-10-17T03:41:48.209Z,1013.04
2018-10-17T03:42:48.183Z,1013.06
2018-10-17T03:43:48.167Z,1013.04
2018-10-17T03:44:48.212Z,1013.07
2018-10-17T03:45:48.129Z,1013.06
2018-10-17T03:46:48.116Z,1013.06
2018-10-17T03:47:48.215Z,1013.08
2018-10-17T03:48:48.082Z,1013.07
2018-10-17T03:49:48.070Z,1013.06
2018-10-17T03:50:48.048Z,1013.06
2018-10-17T03:51:48.019Z,1013.07
2018-10-17T03:52:48.002Z,1013.06
2018-10-17T03:53:47.984Z,1013.02
2018-10-17T03:54:47.972Z,1013.03
2018-10-17T03:55:47.951Z,1013.06
2018-10-17T03:56:47.926Z,1013.06
2018-10-17T03:57:47.920Z,1013.09
2018-10-17T03:58:47.892Z,1013.05
2018-10-17T03:59:47.917Z,1013.04
2018-10-17T04:00:47.852Z,1013.06
2018-10-17T04:01:47.836Z,1013.04
2018-10-17T04:02:47.858Z,1013.07
2018-10-17T04:03:47.797Z,1013.05
2018-10-17T04:04:47.790Z,1013.07
2018-10-17T04:05:47.762Z,1013.06
2018-10-17T04:06:47.837Z,1013.06
2018-10-17T04:07:47.725Z,1013.02
2018-10-17T04:08:47.717Z,1013.08
2018-10-17T04:09:47.688Z,1013.02
2018-10-17T04:10:47.671Z,1013.04
2018-10-17T04:11:47.651Z,1013.08
2018-10-17T04:12:47.631Z,1013.01
2018-10-17T04:13:47.622Z,1013.03
2018-10-17T04:14:47.732Z,1013.02
2018-10-17T04:15:47.575Z,1013.01
2018-10-17T04:16:47.559Z,1012.99
2018-10-17T04:17:47.541Z,1013.05
2018-10-17T04:18:47.521Z,1013.03
2018-10-17T04:19:47.504Z,1012.96
2018-10-17T04:20:47.591Z,1012.99
2018-10-17T04:21:47.467Z,1012.98
2018-10-17T04:22:47.572Z,1012.97
2018-10-17T04:23:47.430Z,1012.98
2018-10-17T04:24:47.419Z,1012.96
2018-10-17T04:25:47.394Z,1012.99
2018-10-17T04:26:47.372Z,1013.01
2018-10-17T04:27:47.355Z,1012.96
2018-10-17T04:28:47.339Z,1013.01
2018-10-17T04:29:47.320Z,1013.01
2018-10-17T04:30:47.302Z,1013.01
2018-10-17T04:31:47.282Z,1013.00
2018-10-17T04:32:47.265Z,1013.03
2018-10-17T04:33:47.343Z,1013.06
2018-10-17T04:34:47.224Z,1013.02
2018-10-17T04:35:47.211Z,1013.01
2018-10-17T04:36:47.225Z,1013.05
2018-10-17T04:37:47.170Z,1013.05
2018-10-17T04:38:47.151Z,1013.06
2018-10-17T04:39:47.133Z,1013.04
2018-10-17T04:40:47.114Z,1013.05
2018-10-17T04:41:47.119Z,1013.08
2018-10-17T04:42:47.076Z,1013.05
2018-10-17T04:43:47.060Z,1013.09
2018-10-17T04:44:47.046Z,1013.12
2018-10-17T04:45:47.026Z,1013.09
2018-10-17T04:46:47.001Z,1013.09
2018-10-17T04:47:47.104Z,1013.12
2018-10-17T04:48:46.966Z,1013.13
2018-10-17T04:49:46.964Z,1013.10
2018-10-17T04:50:46.927Z,1013.07
2018-10-17T04:51:46.907Z,1013.13
2018-10-17T04:52:46.895Z,1013.07
2018-10-17T04:53:46.870Z,1013.08
2018-10-17T04:54:46.854Z,1013.11
2018-10-17T04:55:46.838Z,1013.10
2018-10-17T04:56:46.822Z,1013.09
2018-10-17T04:57:46.807Z,1013.07
2018-10-17T04:58:46.780Z,1013.10
2018-10-17T04:59:46.759Z,1013.06
2018-10-17T05:00:46.741Z,1013.06
2018-10-17T05:01:46.731Z,1013.06
2018-10-17T05:02:46.708Z,1013.08
2018-10-17T05:03:46.685Z,1013.11
2018-10-17T05:04:46.669Z,1013.10
2018-10-17T05:05:46.662Z,1013.09
2018-10-17T05:06:46.667Z,1013.09
2018-10-17T05:07:46.610Z,1013.08
2018-10-17T05:08:46.591Z,1013.06
2018-10-17T05:09:46.579Z,1013.06
2018-10-17T05:10:46.578Z,1013.00
2018-10-17T05:11:46.535Z,1013.00
2018-10-17T05:12:46.519Z,1013.03
2018-10-17T05:13:46.508Z,1013.05
2018-10-17T05:14:46.481Z,1013.00
2018-10-17T05:15:46.469Z,1013.02
2018-10-17T05:16:46.443Z,1012.99
2018-10-17T05:17:46.424Z,1013.04
2018-10-17T05:18:46.408Z,1013.02
2018-10-17T05:19:46.394Z,1013.04
2018-10-17T05:20:46.369Z,1013.05
2018-10-17T05:21:46.351Z,1013.07
2018-10-17T05:22:46.338Z,1013.06
2018-10-17T05:23:46.317Z,1013.06
2018-10-17T05:24:46.302Z,1013.07
2018-10-17T05:25:46.309Z,1013.06
2018-10-17T05:26:46.259Z,1013.06
2018-10-17T05:27:46.240Z,1013.06
2018-10-17T05:28:46.230Z,1013.09
2018-10-17T05:29:46.306Z,1013.07
2018-10-17T05:30:46.191Z,1013.08
2018-10-17T05:31:46.165Z,1013.10
2018-10-17T05:32:46.152Z,1013.08
2018-10-17T05:33:46.135Z,1013.08
2018-10-17T05:34:46.116Z,1013.08
2018-10-17T05:35:46.090Z,1013.09
2018-10-17T05:36:46.074Z,1013.13
2018-10-17T05:37:46.220Z,1013.13
2018-10-17T05:38:46.042Z,1013.12
2018-10-17T05:39:46.029Z,1013.14
2018-10-17T05:40:46.008Z,1013.13
2018-10-17T05:41:45.978Z,1013.16
2018-10-17T05:42:45.975Z,1013.19
2018-10-17T05:43:45.942Z,1013.22
2018-10-17T05:44:45.926Z,1013.24
2018-10-17T05:45:45.907Z,1013.21
2018-10-17T05:46:45.889Z,1013.27
2018-10-17T05:47:45.867Z,1013.28
2018-10-17T05:48:45.849Z,1013.26
2018-10-17T05:49:45.841Z,1013.31
2018-10-17T05:50:45.811Z,1013.29
2018-10-17T05:51:45.795Z,1013.28
2018-10-17T05:52:45.776Z,1013.26
2018-10-17T05:53:45.760Z,1013.27
2018-10-17T05:54:45.740Z,1013.23
2018-10-17T05:55:45.721Z,1013.28
2018-10-17T05:56:45.702Z,1013.32
2018-10-17T05:57:45.684Z,1013.27
2018-10-17T05:58:45.670Z,1013.26
2018-10-17T05:59:45.647Z,1013.26
2018-10-17T06:00:45.627Z,1013.27
2018-10-17T06:01:45.771Z,1013.27
2018-10-17T06:02:45.594Z,1013.32
2018-10-17T06:03:45.573Z,1013.35
2018-10-17T06:04:45.554Z,1013.35
2018-10-17T06:05:45.536Z,1013.34
2018-10-17T06:06:45.517Z,1013.31
2018-10-17T06:07:45.497Z,1013.31
2018-10-17T06:08:45.490Z,1013.33
2018-10-17T06:09:45.461Z,1013.32
2018-10-17T06:10:45.441Z,1013.32
2018-10-17T06:11:45.428Z,1013.37
2018-10-17T06:12:45.415Z,1013.35
2018-10-17T06:13:45.393Z,1013.35
2018-10-17T06:14:45.376Z,1013.30
2018-10-17T06:15:45.353Z,1013.37
2018-10-17T06:16:45.354Z,1013.29
2018-10-17T06:17:45.312Z,1013.32
2018-10-17T06:18:45.295Z,1013.33
2018-10-17T06:19:45.284Z,1013.33
2018-10-17T06:20:45.256Z,1013.32
2018-10-17T06:21:45.240Z,1013.33
2018-10-17T06:22:45.221Z,1013.36
2018-10-17T06:23:45.205Z,1013.35
2018-10-17T06:24:45.184Z,1013.36
2018-10-17T06:25:45.164Z,1013.38
2018-10-17T06:26:45.153Z,1013.39
2018-10-17T06:27:45.126Z,1013.39
2018-10-17T06:28:45.117Z,1013.44
2018-10-17T06:29:45.101Z,1013.43
2018-10-17T06:30:45.129Z,1013.41
2018-10-17T06:31:45.057Z,1013.42
2018-10-17T06:32:45.040Z,1013.41
2018-10-17T06:33:45.397Z,1013.38
2018-10-17T06:34:45.058Z,1013.40
2018-10-17T06:35:44.982Z,1013.41
2018-10-17T06:36:44.971Z,1013.41
2018-10-17T06:37:44.946Z,1013.44
2018-10-17T06:38:44.927Z,1013.42
2018-10-17T06:39:44.906Z,1013.40
2018-10-17T06:40:44.889Z,1013.42
2018-10-17T06:41:44.874Z,1013.47
2018-10-17T06:42:44.860Z,1013.43
2018-10-17T06:43:44.916Z,1013.39
2018-10-17T06:44:44.815Z,1013.41
2018-10-17T06:45:44.800Z,1013.40
2018-10-17T06:46:44.782Z,1013.39
2018-10-17T06:47:44.759Z,1013.41
2018-10-17T06:48:44.756Z,1013.43
2018-10-17T06:49:44.728Z,1013.43
2018-10-17T06:50:44.706Z,1013.41
2018-10-17T06:51:44.693Z,1013.44
2018-10-17T06:52:44.667Z,1013.39
2018-10-17T06:53:44.723Z,1013.41
2018-10-17T06:54:44.630Z,1013.38
2018-10-17T06:55:44.612Z,1013.39
2018-10-17T06:56:44.594Z,1013.40
2018-10-17T06:57:44.584Z,1013.40
2018-10-17T06:58:44.558Z,1013.45
2018-10-17T06:59:44.541Z,1013.42
2018-10-17T07:00:44.525Z,1013.44
2018-10-17T07:01:44.666Z,1013.42
2018-10-17T07:02:44.483Z,1013.44
2018-10-17T07:03:44.537Z,1013.45
2018-10-17T07:04:44.447Z,1013.44
2018-10-17T07:05:44.438Z,1013.50
2018-10-17T07:06:44.416Z,1013.46
2018-10-17T07:07:44.390Z,1013.48
2018-10-17T07:08:44.390Z,1013.46
2018-10-17T07:09:44.355Z,1013.53
2018-10-17T07:10:44.340Z,1013.52
2018-10-17T07:11:44.319Z,1013.51
2018-10-17T07:12:44.302Z,1013.53
2018-10-17T07:13:44.284Z,1013.54
2018-10-17T07:14:44.263Z,1013.53
2018-10-17T07:15:44.364Z,1013.54
2018-10-17T07:16:44.229Z,1013.54
2018-10-17T07:17:44.208Z,1013.55
2018-10-17T07:18:44.191Z,1013.58
2018-10-17T07:19:44.179Z,1013.56
2018-10-17T07:20:44.155Z,1013.60
2018-10-17T07:21:44.138Z,1013.61
2018-10-17T07:22:44.133Z,1013.59
2018-10-17T07:23:44.103Z,1013.60
2018-10-17T07:24:44.084Z,1013.57
2018-10-17T07:25:44.065Z,1013.57
2018-10-17T07:26:44.050Z,1013.60
2018-10-17T07:27:44.031Z,1013.59
2018-10-17T07:28:44.056Z,1013.58
2018-10-17T07:29:44.161Z,1013.58
2018-10-17T07:30:43.977Z,1013.60
2018-10-17T07:31:43.957Z,1013.56
2018-10-17T07:32:43.947Z,1013.61
2018-10-17T07:33:43.921Z,1013.62
2018-10-17T07:34:43.904Z,1013.62
2018-10-17T07:35:43.921Z,1013.61
2018-10-17T07:36:43.869Z,1013.62
2018-10-17T07:37:43.856Z,1013.65
2018-10-17T07:38:43.836Z,1013.68
2018-10-17T07:39:43.823Z,1013.71
2018-10-17T07:40:43.805Z,1013.73
2018-10-17T07:41:43.790Z,1013.70
2018-10-17T07:42:43.766Z,1013.69
2018-10-17T07:43:43.748Z,1013.66
2018-10-17T07:44:43.728Z,1013.73
2018-10-17T07:45:43.840Z,1013.71
2018-10-17T07:46:43.695Z,1013.68
2018-10-17T07:47:43.675Z,1013.72
2018-10-17T07:48:43.666Z,1013.70
2018-10-17T07:49:43.839Z,1013.68
2018-10-17T07:50:43.620Z,1013.69
2018-10-17T07:51:43.602Z,1013.68
2018-10-17T07:52:43.593Z,1013.73
2018-10-17T07:53:43.585Z,1013.70
2018-10-17T07:54:43.551Z,1013.67
2018-10-17T07:55:43.535Z,1013.65
2018-10-17T07:56:43.517Z,1013.69
2018-10-17T07:57:43.499Z,1013.66
2018-10-17T07:58:43.493Z,1013.63
2018-10-17T07:59:43.532Z,1013.65
2018-10-17T08:00:43.446Z,1013.68
2018-10-17T08:01:43.429Z,1013.66
2018-10-17T08:02:43.415Z,1013.67
2018-10-17T08:03:43.414Z,1013.71
2018-10-17T08:04:43.387Z,1013.68
2018-10-17T08:05:43.362Z,1013.68
2018-10-17T08:06:43.442Z,1013.65
2018-10-17T08:07:43.329Z,1013.66
2018-10-17T08:08:43.312Z,1013.61
2018-10-17T08:09:43.299Z,1013.67
2018-10-17T08:10:43.274Z,1013.67
2018-10-17T08:11:43.266Z,1013.72
2018-10-17T08:12:43.245Z,1013.70
2018-10-17T08:13:43.228Z,1013.67
2018-10-17T08:14:43.209Z,1013.69
2018-10-17T08:15:43.198Z,1013.68
2018-10-17T08:16:43.219Z,1013.67
2018-10-17T08:17:43.159Z,1013.69
2018-10-17T08:18:43.140Z,1013.71
2018-10-17T08:19:43.124Z,1013.68
2018-10-17T08:20:43.108Z,1013.68
2018-10-17T08:21:43.091Z,1013.67
2018-10-17T08:22:43.074Z,1013.69
2018-10-17T08:23:43.064Z,1013.70
2018-10-17T08:24:43.041Z,1013.69
2018-10-17T08:25:43.043Z,1013.68
2018-10-17T08:26:43.006Z,1013.71
2018-10-17T08:27:42.992Z,1013.68
2018-10-17T08:28:42.974Z,1013.68
2018-10-17T08:29:42.965Z,1013.67
2018-10-17T08:30:42.941Z,1013.71
2018-10-17T08:31:42.927Z,1013.70
2018-10-17T08:32:42.908Z,1013.68
2018-10-17T08:33:42.892Z,1013.71
2018-10-17T08:34:42.882Z,1013.72
2018-10-17T08:35:43.035Z,1013.70
2018-10-17T08:36:43.038Z,1013.73
2018-10-17T08:37:43.216Z,1013.74
2018-10-17T08:38:42.879Z,1013.78
2018-10-17T08:39:42.790Z,1013.77
2018-10-17T08:40:42.777Z,1013.78
2018-10-17T08:41:42.760Z,1013.82
2018-10-17T08:42:42.754Z,1013.80
2018-10-17T08:43:42.726Z,1013.81
2018-10-17T08:44:42.707Z,1013.78
2018-10-17T08:45:42.712Z,1013.79
2018-10-17T08:46:42.675Z,1013.80
2018-10-17T08:47:42.662Z,1013.78
2018-10-17T08:48:42.657Z,1013.73
2018-10-17T08:49:42.641Z,1013.74
2018-10-17T08:50:42.765Z,1013.78
2018-10-17T08:51:42.597Z,1013.80
2018-10-17T08:52:42.585Z,1013.76
2018-10-17T08:53:42.568Z,1013.75
2018-10-17T08:54:42.555Z,1013.74
2018-10-17T08:55:42.541Z,1013.81
2018-10-17T08:56:42.518Z,1013.81
2018-10-17T08:57:42.573Z,1013.81
2018-10-17T08:58:42.487Z,1013.88
2018-10-17T08:59:42.483Z,1013.82
2018-10-17T09:00:42.463Z,1013.82
2018-10-17T09:01:42.438Z,1013.78
2018-10-17T09:02:42.433Z,1013.80
2018-10-17T09:03:42.408Z,1013.77
2018-10-17T09:04:42.393Z,1013.80
2018-10-17T09:05:42.383Z,1013.81
2018-10-17T09:06:42.390Z,1013.81
2018-10-17T09:07:42.485Z,1013.86
2018-10-17T09:08:42.329Z,1013.85
2018-10-17T09:09:42.317Z,1013.83
2018-10-17T09:10:42.300Z,1013.89
2018-10-17T09:11:42.295Z,1013.81
2018-10-17T09:12:42.272Z,1013.83
2018-10-17T09:13:42.259Z,1013.82
2018-10-17T09:14:42.247Z,1013.87
2018-10-17T09:15:42.242Z,1013.91
2018-10-17T09:16:42.238Z,1013.96
2018-10-17T09:17:42.198Z,1013.94
2018-10-17T09:18:42.190Z,1013.94
2018-10-17T09:19:43.160Z,1013.89
2018-10-17T09:20:42.465Z,1013.90
2018-10-17T09:21:42.570Z,1013.90
2018-10-17T09:22:42.262Z,1013.90
2018-10-17T09:23:42.117Z,1013.88
2018-10-17T09:24:42.147Z,1013.91
2018-10-17T09:25:42.207Z,1013.89
2018-10-17T09:26:42.071Z,1013.88
2018-10-17T09:27:42.062Z,1013.86
2018-10-17T09:28:42.045Z,1013.91
2018-10-17T09:29:42.034Z,1013.93
2018-10-17T09:30:42.087Z,1013.97
2018-10-17T09:31:42.017Z,1013.93
2018-10-17T09:32:41.985Z,1013.94
2018-10-17T09:33:44.592Z,1013.97
2018-10-17T09:38:57.263Z,1014.02
2018-10-17T09:39:59.895Z,1013.98
2018-10-17T09:42:01.111Z,1013.99
2018-10-17T09:43:01.080Z,1013.99
2018-10-17T09:44:01.019Z,1013.99
2018-10-17T09:45:01.006Z,1013.96
2018-10-17T09:46:01.062Z,1014.01
2018-10-17T09:47:01.028Z,1013.98
2018-10-17T09:48:00.992Z,1014.03
2018-10-17T09:49:00.954Z,1014.01
2018-10-17T09:50:00.946Z,1014.00
2018-10-17T09:51:00.925Z,1014.04
2018-10-17T09:52:00.956Z,1014.02
2018-10-17T09:53:00.932Z,1014.02
2018-10-17T09:54:00.964Z,1014.04
2018-10-17T09:55:00.921Z,1014.05
2018-10-17T09:56:00.867Z,1013.98
2018-10-17T09:57:00.852Z,1014.04
2018-10-17T09:59:44.780Z,1014.05
2018-10-17T10:00:43.558Z,1014.06
2018-10-17T10:01:43.557Z,1014.03
2018-10-17T10:02:43.526Z,1014.01
2018-10-17T10:03:43.513Z,1014.03
2018-10-17T10:04:43.515Z,1014.01
2018-10-17T10:05:43.494Z,1014.05
2018-10-17T10:06:43.479Z,1014.04
2018-10-17T10:07:43.482Z,1014.04
2018-10-17T10:08:43.462Z,1014.02
2018-10-17T10:09:43.443Z,1014.05
2018-10-17T10:10:43.442Z,1014.00
2018-10-17T10:11:43.423Z,1014.03
2018-10-17T10:12:43.409Z,1014.01
2018-10-17T10:13:43.398Z,1014.06
2018-10-17T10:14:43.391Z,1014.03
2018-10-17T10:15:43.379Z,1014.05
2018-10-17T10:16:43.371Z,1014.05
2018-10-17T10:17:43.433Z,1014.06
2018-10-17T10:18:43.345Z,1014.03
2018-10-17T10:19:43.335Z,1014.04
2018-10-17T10:20:43.331Z,1014.02
2018-10-17T10:21:43.322Z,1014.03
2018-10-17T10:22:43.329Z,1014.02
2018-10-17T10:23:43.602Z,1014.03
2018-10-17T10:24:43.377Z,1014.04
2018-10-17T10:25:43.276Z,1014.04
2018-10-17T10:26:43.264Z,1014.02
2018-10-17T10:27:43.263Z,1013.99
2018-10-17T10:28:43.323Z,1013.99
2018-10-17T10:29:43.276Z,1014.04
2018-10-17T10:30:43.225Z,1014.05
2018-10-17T10:31:43.218Z,1014.02
2018-10-17T10:32:43.212Z,1014.01
2018-10-17T10:33:43.200Z,1013.96
2018-10-17T10:34:43.194Z,1013.97
2018-10-17T10:35:43.176Z,1013.99
2018-10-17T10:36:43.165Z,1014.00
2018-10-17T10:37:43.179Z,1014.04
2018-10-17T10:38:43.146Z,1013.98
2018-10-17T10:39:43.136Z,1013.98
2018-10-17T10:40:43.242Z,1013.94
2018-10-17T10:41:43.118Z,1013.94
2018-10-17T10:42:43.107Z,1013.97
2018-10-17T10:43:43.100Z,1013.95
2018-10-17T10:44:43.088Z,1013.93
2018-10-17T10:45:43.083Z,1013.92
2018-10-17T10:46:43.074Z,1013.90
2018-10-17T10:47:43.059Z,1013.92
2018-10-17T10:48:43.058Z,1013.92
2018-10-17T10:49:43.041Z,1013.90
2018-10-17T10:50:43.031Z,1013.87
2018-10-17T10:51:43.121Z,1013.88
2018-10-17T10:52:43.043Z,1013.89
2018-10-17T10:53:43.005Z,1013.83
2018-10-17T10:54:42.991Z,1013.85
2018-10-17T10:55:42.992Z,1013.84
2018-10-17T10:56:42.981Z,1013.80
2018-10-17T10:57:42.977Z,1013.82
2018-10-17T10:58:43.036Z,1013.77
2018-10-17T10:59:43.026Z,1013.82
2018-10-17T11:00:42.941Z,1013.82
2018-10-17T11:01:42.927Z,1013.79
2018-10-17T11:02:42.920Z,1013.78
2018-10-17T11:03:42.906Z,1013.78
2018-10-17T11:04:42.935Z,1013.78
2018-10-17T11:05:43.078Z,1013.74
2018-10-17T11:06:42.875Z,1013.75
2018-10-17T11:07:42.862Z,1013.74
2018-10-17T11:08:42.861Z,1013.71
2018-10-17T11:09:42.859Z,1013.71
2018-10-17T11:10:42.835Z,1013.72
2018-10-17T11:11:42.828Z,1013.71
2018-10-17T11:12:42.815Z,1013.72
2018-10-17T11:13:42.810Z,1013.69
2018-10-17T11:14:43.004Z,1013.72
2018-10-17T11:15:42.784Z,1013.71
2018-10-17T11:16:42.778Z,1013.68
2018-10-17T11:17:42.767Z,1013.68
2018-10-17T11:18:42.754Z,1013.72
2018-10-17T11:19:42.749Z,1013.72
2018-10-17T11:20:42.742Z,1013.71
2018-10-17T11:21:42.755Z,1013.71
2018-10-17T11:22:42.713Z,1013.72
2018-10-17T11:23:42.722Z,1013.69
2018-10-17T11:24:42.697Z,1013.71
2018-10-17T11:25:42.692Z,1013.69
2018-10-17T11:26:42.678Z,1013.67
2018-10-17T11:27:42.670Z,1013.67
2018-10-17T11:28:42.658Z,1013.68
2018-10-17T11:29:42.645Z,1013.63
2018-10-17T11:30:42.666Z,1013.67
2018-10-17T11:31:42.667Z,1013.62
2018-10-17T11:32:42.624Z,1013.61
2018-10-17T11:33:42.611Z,1013.58
2018-10-17T11:34:42.598Z,1013.58
2018-10-17T11:35:42.601Z,1013.56
2018-10-17T11:36:42.575Z,1013.59
2018-10-17T11:37:42.634Z,1013.59
2018-10-17T11:38:42.555Z,1013.59
2018-10-17T11:39:42.544Z,1013.57
2018-10-17T11:40:42.718Z,1013.56
2018-10-17T11:41:42.541Z,1013.53
2018-10-17T11:42:42.510Z,1013.53
2018-10-17T11:43:42.505Z,1013.51
2018-10-17T11:44:42.499Z,1013.50
2018-10-17T11:45:42.488Z,1013.49
2018-10-17T11:46:42.483Z,1013.51
2018-10-17T11:47:42.538Z,1013.52
2018-10-17T11:48:42.460Z,1013.49
2018-10-17T11:49:42.438Z,1013.51
2018-10-17T11:50:42.426Z,1013.48
2018-10-17T11:51:42.428Z,1013.48
2018-10-17T11:52:42.404Z,1013.47
2018-10-17T11:53:42.398Z,1013.51
2018-10-17T11:54:42.397Z,1013.49
2018-10-17T11:55:42.378Z,1013.45
2018-10-17T11:56:42.365Z,1013.48
2018-10-17T11:57:42.364Z,1013.44
2018-10-17T11:58:42.337Z,1013.45
2018-10-17T11:59:42.448Z,1013.45
2018-10-17T12:00:42.333Z,1013.44
2018-10-17T12:01:42.339Z,1013.42
2018-10-17T12:02:42.295Z,1013.45
2018-10-17T12:03:42.525Z,1013.44
2018-10-17T12:04:42.424Z,1013.43
2018-10-17T12:05:42.371Z,1013.44
2018-10-17T12:06:42.250Z,1013.37
2018-10-17T12:07:42.240Z,1013.39
2018-10-17T12:08:42.229Z,1013.38
2018-10-17T12:09:42.238Z,1013.39
2018-10-17T12:10:42.211Z,1013.39
2018-10-17T12:11:42.271Z,1013.39
2018-10-17T12:12:42.185Z,1013.37